Time;durP1;ratioP1;P1;durP2;ratioP2;P2;SDS_P1;SDS_P2;PMS_P1;PMS_P2;Temp;Humidity;BMP_temperature;BMP_pressure;BME280_temperature;BME280_humidity;BME280_pressure;Samples;Min_cycle;Max_cycle;Signal;HPM_P1;HPM_P2
2020/09/23 00:01:38;;;;;;;2.9;1.4;;;;;;;;;;;;;
2020/09/23 00:04:05;;;;;;;2.1;1.3;;;;;;;;;;;;;
2020/09/23 00:06:30;;;;;;;2.6;1.2;;;;;;;;;;;;;
2020/09/23 00:08:58;;;;;;;3.1;1.1;;;;;;;;;;;;;
2020/09/23 00:11:23;;;;;;;4.7;1.1;;;;;;;;;;;;;
2020/09/23 00:13:49;;;;;;;2;1.5;;;;;;;;;;;;;
2020/09/23 00:16:13;;;;;;;3.8;1.6;;;;;;;;;;;;;
2020/09/23 00:18:39;;;;;;;3.1;1.6;;;;;;;;;;;;;
2020/09/23 00:21:04;;;;;;;2.4;1.2;;;;;;;;;;;;;
2020/09/23 00:23:30;;;;;;;2.3;1.1;;;;;;;;;;;;;
2020/09/23 00:25:55;;;;;;;1.6;1.1;;;;;;;;;;;;;
2020/09/23 00:28:21;;;;;;;1.4;1;;;;;;;;;;;;;
2020/09/23 00:30:47;;;;;;;1.6;1.1;;;;;;;;;;;;;
2020/09/23 00:33:11;;;;;;;3.9;1.3;;;;;;;;;;;;;
2020/09/23 00:35:36;;;;;;;2.6;1.3;;;;;;;;;;;;;
2020/09/23 00:38:01;;;;;;;2.5;1.5;;;;;;;;;;;;;
2020/09/23 00:40:26;;;;;;;1.9;1.6;;;;;;;;;;;;;
2020/09/23 00:42:51;;;;;;;3.9;1.1;;;;;;;;;;;;;
2020/09/23 00:45:19;;;;;;;2.5;1.8;;;;;;;;;;;;;
2020/09/23 00:47:44;;;;;;;1.8;1.2;;;;;;;;;;;;;
2020/09/23 00:50:09;;;;;;;2.5;1.5;;;;;;;;;;;;;
2020/09/23 00:52:34;;;;;;;2.3;1.2;;;;;;;;;;;;;
2020/09/23 00:54:59;;;;;;;1.8;1.2;;;;;;;;;;;;;
2020/09/23 00:57:24;;;;;;;1.1;1;;;;;;;;;;;;;
2020/09/23 00:59:50;;;;;;;2;1.2;;;;;;;;;;;;;
2020/09/23 01:02:15;;;;;;;3.6;1.6;;;;;;;;;;;;;
2020/09/23 01:04:42;;;;;;;3.1;1.5;;;;;;;;;;;;;
2020/09/23 01:07:08;;;;;;;2.3;1.5;;;;;;;;;;;;;
2020/09/23 01:09:33;;;;;;;2.8;1.4;;;;;;;;;;;;;
2020/09/23 01:11:58;;;;;;;1.8;1.4;;;;;;;;;;;;;
2020/09/23 01:14:23;;;;;;;1.5;1.2;;;;;;;;;;;;;
2020/09/23 01:16:48;;;;;;;3;1.4;;;;;;;;;;;;;
2020/09/23 01:19:13;;;;;;;1.5;1.2;;;;;;;;;;;;;
2020/09/23 01:21:38;;;;;;;2.1;1.4;;;;;;;;;;;;;
2020/09/23 01:24:03;;;;;;;1.8;1.4;;;;;;;;;;;;;
2020/09/23 01:26:29;;;;;;;2.1;1.3;;;;;;;;;;;;;
2020/09/23 01:28:54;;;;;;;1.8;1.4;;;;;;;;;;;;;
2020/09/23 01:31:20;;;;;;;1.3;1.2;;;;;;;;;;;;;
2020/09/23 01:33:46;;;;;;;2.4;1.8;;;;;;;;;;;;;
2020/09/23 01:36:11;;;;;;;2.5;1.6;;;;;;;;;;;;;
2020/09/23 01:38:36;;;;;;;2.5;1.5;;;;;;;;;;;;;
2020/09/23 01:41:05;;;;;;;2.4;1.5;;;;;;;;;;;;;
2020/09/23 01:43:29;;;;;;;2.3;1.3;;;;;;;;;;;;;
2020/09/23 01:45:55;;;;;;;6.9;1.8;;;;;;;;;;;;;
2020/09/23 01:48:20;;;;;;;1.7;1.3;;;;;;;;;;;;;
2020/09/23 01:50:47;;;;;;;2.3;1.5;;;;;;;;;;;;;
2020/09/23 01:53:11;;;;;;;3.2;1.4;;;;;;;;;;;;;
2020/09/23 01:55:37;;;;;;;2.3;1.7;;;;;;;;;;;;;
2020/09/23 01:58:02;;;;;;;6.1;1.5;;;;;;;;;;;;;
2020/09/23 02:00:29;;;;;;;2.8;1.8;;;;;;;;;;;;;
2020/09/23 02:02:54;;;;;;;2.6;1.4;;;;;;;;;;;;;
2020/09/23 02:05:19;;;;;;;2.4;1.5;;;;;;;;;;;;;
2020/09/23 02:07:46;;;;;;;2;1.5;;;;;;;;;;;;;
2020/09/23 02:10:12;;;;;;;2;1.4;;;;;;;;;;;;;
2020/09/23 02:12:37;;;;;;;2.3;1.4;;;;;;;;;;;;;
2020/09/23 02:15:02;;;;;;;2.8;1.5;;;;;;;;;;;;;
2020/09/23 02:17:28;;;;;;;3.7;1.5;;;;;;;;;;;;;
2020/09/23 02:19:53;;;;;;;1.7;1.4;;;;;;;;;;;;;
2020/09/23 02:22:18;;;;;;;2.5;1.4;;;;;;;;;;;;;
2020/09/23 02:24:43;;;;;;;1.4;1.1;;;;;;;;;;;;;
2020/09/23 02:27:08;;;;;;;7.9;1.5;;;;;;;;;;;;;
2020/09/23 02:29:33;;;;;;;2.4;1.4;;;;;;;;;;;;;
2020/09/23 02:31:58;;;;;;;1.5;1.2;;;;;;;;;;;;;
2020/09/23 02:34:23;;;;;;;2.7;1.4;;;;;;;;;;;;;
2020/09/23 02:36:48;;;;;;;4.1;1.6;;;;;;;;;;;;;
2020/09/23 02:39:13;;;;;;;4.4;1.3;;;;;;;;;;;;;
2020/09/23 02:41:40;;;;;;;3.3;1.3;;;;;;;;;;;;;
2020/09/23 02:44:05;;;;;;;1.6;1.2;;;;;;;;;;;;;
2020/09/23 02:46:31;;;;;;;3.5;1.4;;;;;;;;;;;;;
2020/09/23 02:48:56;;;;;;;4;1.6;;;;;;;;;;;;;
2020/09/23 02:51:22;;;;;;;1.4;1.1;;;;;;;;;;;;;
2020/09/23 02:53:47;;;;;;;2.6;1.3;;;;;;;;;;;;;
2020/09/23 02:56:13;;;;;;;3.1;1.6;;;;;;;;;;;;;
2020/09/23 02:58:38;;;;;;;2;1.4;;;;;;;;;;;;;
2020/09/23 03:01:04;;;;;;;1.4;1.3;;;;;;;;;;;;;
2020/09/23 03:03:30;;;;;;;1.7;1.2;;;;;;;;;;;;;
2020/09/23 03:05:56;;;;;;;2.2;1.5;;;;;;;;;;;;;
2020/09/23 03:08:21;;;;;;;2.1;1.3;;;;;;;;;;;;;
2020/09/23 03:10:48;;;;;;;1.6;1.3;;;;;;;;;;;;;
2020/09/23 03:13:13;;;;;;;1.8;1.3;;;;;;;;;;;;;
2020/09/23 03:15:39;;;;;;;1.8;1.4;;;;;;;;;;;;;
2020/09/23 03:18:04;;;;;;;1.4;1;;;;;;;;;;;;;
2020/09/23 03:20:29;;;;;;;1.6;1.3;;;;;;;;;;;;;
2020/09/23 03:22:54;;;;;;;1.4;1.1;;;;;;;;;;;;;
2020/09/23 03:25:21;;;;;;;2.5;1.4;;;;;;;;;;;;;
2020/09/23 03:27:46;;;;;;;2.1;1.3;;;;;;;;;;;;;
2020/09/23 03:30:12;;;;;;;2.3;1.1;;;;;;;;;;;;;
2020/09/23 03:32:40;;;;;;;1.7;1.2;;;;;;;;;;;;;
2020/09/23 03:35:02;;;;;;;1.7;1.2;;;;;;;;;;;;;
2020/09/23 03:37:27;;;;;;;1.9;1.1;;;;;;;;;;;;;
2020/09/23 03:39:52;;;;;;;1.8;1.1;;;;;;;;;;;;;
2020/09/23 03:42:17;;;;;;;4.1;1.5;;;;;;;;;;;;;
2020/09/23 03:44:42;;;;;;;2.9;1.8;;;;;;;;;;;;;
2020/09/23 03:47:08;;;;;;;1.9;1.3;;;;;;;;;;;;;
2020/09/23 03:49:33;;;;;;;2.3;1.6;;;;;;;;;;;;;
2020/09/23 03:51:58;;;;;;;1.2;1;;;;;;;;;;;;;
2020/09/23 03:54:23;;;;;;;3.1;1.4;;;;;;;;;;;;;
2020/09/23 03:56:48;;;;;;;2.7;1.5;;;;;;;;;;;;;
2020/09/23 03:59:13;;;;;;;1.8;1.4;;;;;;;;;;;;;
2020/09/23 04:02:29;;;;;;;1.9;1.4;;;;;;;17.96;83.08301;931.3865;;;;
2020/09/23 04:04:55;;;;;;;2.5;1.5;;;;;;;17.76;84.02246;931.4628;;;;
2020/09/23 04:07:21;;;;;;;1.4;1.2;;;;;;;17.72;84.03516;931.44;;;;
2020/09/23 04:09:46;;;;;;;1.6;1.1;;;;;;;17.65;84.2207;931.4392;;;;
2020/09/23 04:12:13;;;;;;;1.8;1.3;;;;;;;17.61;84.37598;931.4199;;;;
2020/09/23 04:14:38;;;;;;;2.6;1.1;;;;;;;17.52;84.8457;931.4168;;;;
2020/09/23 04:17:05;;;;;;;2.1;1.5;;;;;;;17.39;85.58594;931.4509;;;;
2020/09/23 04:19:30;;;;;;;2.4;1.3;;;;;;;17.25;86.39551;931.4788;;;;
2020/09/23 04:21:56;;;;;;;3.4;1.1;;;;;;;17.29;86.36426;931.4802;;;;
2020/09/23 04:24:21;;;;;;;2.3;1.1;;;;;;;17.09;87.67383;931.4835;;;;
2020/09/23 04:26:47;;;;;;;2;1.3;;;;;;;17.16;87.4873;931.4086;;;;
2020/09/23 04:29:12;;;;;;;1.1;1;;;;;;;17.22;87.84961;931.4345;;;;
2020/09/23 04:31:41;;;;;;;1.7;1.1;;;;;;;17.22;87.65234;931.4031;;;;
2020/09/23 04:34:06;;;;;;;3.9;1.8;;;;;;;17.18;87.81738;931.3775;;;;
2020/09/23 04:36:33;;;;;;;2.3;1.4;;;;;;;17.15;88.03223;931.4039;;;;
2020/09/23 04:38:58;;;;;;;3.2;1.6;;;;;;;17.17;88.07031;931.3881;;;;
2020/09/23 04:41:23;;;;;;;1.9;1.4;;;;;;;17.21;87.88086;931.3879;;;;
2020/09/23 04:43:51;;;;;;;2;1.4;;;;;;;17.13;87.77148;931.3766;;;;
2020/09/23 04:46:17;;;;;;;1.7;1.4;;;;;;;17.09;87.91699;931.416;;;;
2020/09/23 04:48:42;;;;;;;3.3;1.5;;;;;;;17.08;88.14551;931.413;;;;
2020/09/23 04:51:07;;;;;;;3.1;1.7;;;;;;;17.1;87.96484;931.4358;;;;
2020/09/23 04:53:32;;;;;;;1.5;1.3;;;;;;;17.1;87.7666;931.4504;;;;
2020/09/23 04:55:57;;;;;;;2.3;1.2;;;;;;;17.09;87.99805;931.4095;;;;
2020/09/23 04:58:23;;;;;;;2.7;1.3;;;;;;;17.06;87.80371;931.5118;;;;
2020/09/23 05:00:51;;;;;;;2.3;1.2;;;;;;;17;88.25586;931.5581;;;;
2020/09/23 05:03:16;;;;;;;1.7;1.4;;;;;;;17;88.51074;931.57;;;;
2020/09/23 05:05:42;;;;;;;2;1.3;;;;;;;17.05;88.20703;931.5387;;;;
2020/09/23 05:08:06;;;;;;;2;1.4;;;;;;;17.1;87.89551;931.6376;;;;
2020/09/23 05:10:31;;;;;;;1.7;1.3;;;;;;;17.09;87.97266;931.5577;;;;
2020/09/23 05:12:56;;;;;;;2.9;1.4;;;;;;;17.14;87.63477;931.6038;;;;
2020/09/23 05:15:28;;;;;;;2.9;1.7;;;;;;;16.97;88.46094;931.6592;;;;
2020/09/23 05:17:53;;;;;;;2.1;1.4;;;;;;;16.93;88.85547;931.6717;;;;
2020/09/23 05:20:19;;;;;;;1.8;1.2;;;;;;;16.55;91.10547;931.6666;;;;
2020/09/23 05:22:44;;;;;;;3;1.4;;;;;;;16.49;91.67188;931.693;;;;
2020/09/23 05:25:11;;;;;;;2.7;1.4;;;;;;;16.54;91.97461;931.6859;;;;
2020/09/23 05:27:36;;;;;;;2;1.3;;;;;;;16.77;90.67578;931.7061;;;;
2020/09/23 05:30:01;;;;;;;2.5;1.6;;;;;;;16.91;89.94141;931.7461;;;;
2020/09/23 05:32:26;;;;;;;2.5;1.3;;;;;;;16.99;89.20508;931.7151;;;;
2020/09/23 05:34:51;;;;;;;2;1.4;;;;;;;17.05;88.60352;931.7227;;;;
2020/09/23 05:37:27;;;;;;;1.8;1.5;;;;;;;17.04;88.625;931.7084;;;;
2020/09/23 05:39:53;;;;;;;2.5;1.4;;;;;;;17.02;89.03613;931.733;;;;
2020/09/23 05:42:18;;;;;;;2.7;1.8;;;;;;;17.01;89.32422;931.7211;;;;
2020/09/23 05:44:45;;;;;;;2.6;1.5;;;;;;;16.94;89.2998;931.6481;;;;
2020/09/23 05:47:10;;;;;;;2.9;1.9;;;;;;;16.94;89.15918;931.7431;;;;
2020/09/23 05:49:38;;;;;;;1.6;1.3;;;;;;;16.98;89.37695;931.7442;;;;
2020/09/23 05:52:03;;;;;;;2.8;1.3;;;;;;;17.05;88.89258;931.668;;;;
2020/09/23 05:54:32;;;;;;;2.6;1.3;;;;;;;17.05;88.11621;931.7493;;;;
2020/09/23 05:56:57;;;;;;;1;0.9;;;;;;;17.06;88.26758;931.7949;;;;
2020/09/23 05:59:23;;;;;;;1.9;1.4;;;;;;;17.09;88.62012;931.8481;;;;
2020/09/23 06:01:48;;;;;;;3.4;1.8;;;;;;;17.14;88.28516;931.8547;;;;
2020/09/23 06:04:14;;;;;;;1.4;1.1;;;;;;;17.07;88.67676;931.842;;;;
2020/09/23 06:06:40;;;;;;;2;1.4;;;;;;;17.06;88.60352;931.8464;;;;
2020/09/23 06:09:06;;;;;;;1.8;1.4;;;;;;;17;89.18359;931.8951;;;;
2020/09/23 06:11:32;;;;;;;4.1;1.7;;;;;;;17.11;88.5791;931.8226;;;;
2020/09/23 06:13:58;;;;;;;2.9;1.8;;;;;;;17.09;88.31934;931.8578;;;;
2020/09/23 06:16:23;;;;;;;2.3;1.6;;;;;;;16.95;89.47559;931.8569;;;;
2020/09/23 06:18:50;;;;;;;1.8;1.2;;;;;;;17;89.57715;931.912;;;;
2020/09/23 06:21:15;;;;;;;1.5;1.1;;;;;;;17.08;89.45508;931.9375;;;;
2020/09/23 06:23:42;;;;;;;2.3;1.6;;;;;;;17.13;89.27832;931.9114;;;;
2020/09/23 06:26:07;;;;;;;3.5;1.8;;;;;;;17.1;88.95996;931.8977;;;;
2020/09/23 06:28:42;;;;;;;3.9;1.9;;;;;;;17.08;89.3623;931.94;;;;
2020/09/23 06:31:09;;;;;;;1.9;1.3;;;;;;;17.18;88.72168;932.0131;;;;
2020/09/23 06:33:34;;;;;;;7.6;2;;;;;;;17.15;89.22656;932.025;;;;
2020/09/23 06:36:00;;;;;;;1.7;1.3;;;;;;;17.14;89.60547;931.9691;;;;
2020/09/23 06:38:27;;;;;;;2.1;1.2;;;;;;;17.17;89.39355;932.0622;;;;
2020/09/23 06:40:52;;;;;;;3.6;1.9;;;;;;;17.1;89.43555;932.0248;;;;
2020/09/23 06:43:20;;;;;;;6.3;1.2;;;;;;;17.21;88.87793;932.0363;;;;
2020/09/23 06:45:44;;;;;;;4.9;1.6;;;;;;;17.22;88.7168;932.0724;;;;
2020/09/23 06:48:11;;;;;;;2.5;1.5;;;;;;;17.28;88.38184;932.0848;;;;
2020/09/23 06:50:36;;;;;;;3.7;1.7;;;;;;;17.35;88.19922;932.0322;;;;
2020/09/23 06:53:02;;;;;;;3;1.7;;;;;;;17.4;87.97656;932.035;;;;
2020/09/23 06:55:27;;;;;;;3.5;1.9;;;;;;;17.45;87.73242;932.0758;;;;
2020/09/23 06:57:57;;;;;;;1.8;1.3;;;;;;;17.42;87.83105;932.0804;;;;
2020/09/23 07:00:21;;;;;;;2.9;1.3;;;;;;;17.41;87.8291;932.1022;;;;
2020/09/23 07:02:47;;;;;;;1.8;1.5;;;;;;;17.26;88.7959;932.1248;;;;
2020/09/23 07:05:12;;;;;;;2.4;1.2;;;;;;;17.36;88.65332;932.135;;;;
2020/09/23 07:07:39;;;;;;;2.7;1.3;;;;;;;17.44;88.1582;932.1234;;;;
2020/09/23 07:10:04;;;;;;;2;1.2;;;;;;;17.57;87.87207;932.1167;;;;
2020/09/23 07:12:30;;;;;;;1.7;1.1;;;;;;;17.69;87.50195;932.201;;;;
2020/09/23 07:14:55;;;;;;;5.1;1.6;;;;;;;17.72;87.13672;932.2137;;;;
2020/09/23 07:17:22;;;;;;;2.5;1.2;;;;;;;17.63;87.01563;932.2029;;;;
2020/09/23 07:19:47;;;;;;;3.2;1.7;;;;;;;17.64;86.76074;932.2317;;;;
2020/09/23 07:22:13;;;;;;;6.1;1.2;;;;;;;17.81;86.52734;932.2242;;;;
2020/09/23 07:24:38;;;;;;;3.2;1.3;;;;;;;17.91;86.30273;932.303;;;;
2020/09/23 07:27:04;;;;;;;3.6;1.4;;;;;;;18.03;86.30469;932.3078;;;;
2020/09/23 07:29:29;;;;;;;6.2;1.6;;;;;;;18.12;86.125;932.1803;;;;
2020/09/23 07:31:59;;;;;;;2.2;1.3;;;;;;;18.25;85.05664;932.3275;;;;
2020/09/23 07:34:23;;;;;;;2.1;1.2;;;;;;;18.38;84.66309;932.2825;;;;
2020/09/23 07:36:49;;;;;;;2.1;1.3;;;;;;;18.41;84.23828;932.2687;;;;
2020/09/23 07:39:14;;;;;;;1.8;1.2;;;;;;;18.52;82.78223;932.2989;;;;
2020/09/23 07:41:39;;;;;;;2.3;1.7;;;;;;;18.42;82.9375;932.3387;;;;
2020/09/23 07:44:05;;;;;;;2.6;1.7;;;;;;;18.31;84.09082;932.3459;;;;
2020/09/23 07:46:30;;;;;;;6.3;2;;;;;;;18.28;84.72363;932.3131;;;;
2020/09/23 07:48:55;;;;;;;2.7;1.6;;;;;;;17.91;86.55859;932.3481;;;;
2020/09/23 07:51:20;;;;;;;3.9;1.6;;;;;;;18.13;86.10156;932.3356;;;;
2020/09/23 07:53:45;;;;;;;3.3;1.7;;;;;;;18.35;84.05371;932.4196;;;;
2020/09/23 07:56:12;;;;;;;1.8;1.5;;;;;;;18.59;82.63281;932.3901;;;;
2020/09/23 07:58:37;;;;;;;2.4;1.3;;;;;;;18.77;81.08398;932.4102;;;;
2020/09/23 08:01:03;;;;;;;2.4;1.3;;;;;;;18.85;80.43555;932.3781;;;;
2020/09/23 08:03:31;;;;;;;2.7;1.7;;;;;;;19.02;80.66309;932.4083;;;;
2020/09/23 08:05:56;;;;;;;2.2;1.5;;;;;;;19.09;81.17871;932.3681;;;;
2020/09/23 08:08:21;;;;;;;1.6;1.5;;;;;;;19.13;79.18262;932.3757;;;;
2020/09/23 08:10:46;;;;;;;2.2;1.4;;;;;;;19.25;79.05273;932.4205;;;;
2020/09/23 08:13:13;;;;;;;1.8;1.4;;;;;;;19.28;77.72949;932.4147;;;;
2020/09/23 08:15:38;;;;;;;4.1;1.4;;;;;;;19.29;79.8877;932.449;;;;
2020/09/23 08:18:03;;;;;;;2.5;1;;;;;;;19.27;79.15039;932.4617;;;;
2020/09/23 08:20:28;;;;;;;2.2;1.5;;;;;;;19.37;79.39941;932.4619;;;;
2020/09/23 08:22:54;;;;;;;2.1;1.1;;;;;;;19.48;78.43066;932.5075;;;;
2020/09/23 08:25:22;;;;;;;3.4;1.7;;;;;;;19.52;78.36719;932.499;;;;
2020/09/23 08:27:47;;;;;;;4.2;1.6;;;;;;;19.52;77.87891;932.4811;;;;
2020/09/23 08:30:15;;;;;;;2.1;1.6;;;;;;;19.61;78.25488;932.4444;;;;
2020/09/23 08:32:40;;;;;;;2.4;1.5;;;;;;;19.5;77.62891;932.4812;;;;
2020/09/23 08:35:06;;;;;;;2.2;1;;;;;;;19.57;79.45996;932.4936;;;;
2020/09/23 08:37:31;;;;;;;1.8;1.4;;;;;;;19.57;79.7168;932.5055;;;;
2020/09/23 08:39:56;;;;;;;5.2;1.7;;;;;;;19.68;78.36035;932.4125;;;;
2020/09/23 08:42:22;;;;;;;2.4;1.4;;;;;;;19.76;76.40234;932.4509;;;;
2020/09/23 08:44:49;;;;;;;1.8;1.3;;;;;;;19.84;75.7998;932.4328;;;;
2020/09/23 08:47:14;;;;;;;1.7;1.2;;;;;;;19.8;75.54785;932.3792;;;;
2020/09/23 08:49:43;;;;;;;1.4;1.2;;;;;;;19.81;77.13477;932.4409;;;;
2020/09/23 08:52:09;;;;;;;1.3;0.9;;;;;;;19.83;77.29004;932.372;;;;
2020/09/23 08:54:34;;;;;;;2.9;1.6;;;;;;;19.81;76.43555;932.3681;;;;
2020/09/23 08:56:59;;;;;;;2.9;1.3;;;;;;;19.87;75.59473;932.3881;;;;
2020/09/23 08:59:30;;;;;;;2.3;1.4;;;;;;;19.82;76.04199;932.3583;;;;
2020/09/23 09:01:58;;;;;;;2.2;1.2;;;;;;;19.83;76.33496;932.4292;;;;
2020/09/23 09:04:23;;;;;;;0.9;0.9;;;;;;;19.8;76.48047;932.4277;;;;
2020/09/23 09:06:50;;;;;;;0.8;0.8;;;;;;;19.51;77.15332;932.4797;;;;
2020/09/23 09:09:14;;;;;;;6.2;1.3;;;;;;;19.35;78.18457;932.4713;;;;
2020/09/23 09:11:39;;;;;;;2.6;1.3;;;;;;;19.59;77.0625;932.4435;;;;
2020/09/23 09:14:05;;;;;;;2.9;1.4;;;;;;;19.81;76.86719;932.4327;;;;
2020/09/23 09:16:33;;;;;;;1.9;0.8;;;;;;;19.99;74.18164;932.408;;;;
2020/09/23 09:18:58;;;;;;;2.1;1.1;;;;;;;20.09;73.53125;932.4508;;;;
2020/09/23 09:21:23;;;;;;;12;1.4;;;;;;;20.17;74.81738;932.3898;;;;
2020/09/23 09:23:49;;;;;;;7.6;2.2;;;;;;;20.12;74.75;932.3764;;;;
2020/09/23 09:26:16;;;;;;;1.6;1.1;;;;;;;20.01;75.38477;932.3857;;;;
2020/09/23 09:28:41;;;;;;;2.5;1.1;;;;;;;19.64;72.13867;932.3663;;;;
2020/09/23 09:31:06;;;;;;;2;1.1;;;;;;;19.48;75.70215;932.4124;;;;
2020/09/23 09:33:36;;;;;;;2.2;1;;;;;;;19.5;75.95117;932.4247;;;;
2020/09/23 09:36:05;;;;;;;2;1.3;;;;;;;19.62;75.94824;932.3474;;;;
2020/09/23 09:38:30;;;;;;;2.2;1.2;;;;;;;19.78;77.02539;932.3287;;;;
2020/09/23 09:40:58;;;;;;;2.8;1.3;;;;;;;19.92;75.33398;932.3137;;;;
2020/09/23 09:43:26;;;;;;;5;1.4;;;;;;;19.93;72.65234;932.3094;;;;
2020/09/23 09:45:54;;;;;;;4.3;1.2;;;;;;;20.06;73.35156;932.2766;;;;
2020/09/23 09:48:22;;;;;;;3.1;1.1;;;;;;;20.17;73.38281;932.2991;;;;
2020/09/23 09:50:47;;;;;;;5.7;1.1;;;;;;;20.22;72.44531;932.3306;;;;
2020/09/23 09:53:14;;;;;;;2.2;1.3;;;;;;;20.14;73.87891;932.2953;;;;
2020/09/23 09:55:39;;;;;;;1.3;1;;;;;;;20.32;74.29297;932.272;;;;
2020/09/23 09:58:04;;;;;;;2.5;1.6;;;;;;;20.25;74.03711;932.3279;;;;
2020/09/23 10:00:38;;;;;;;1.9;0.9;;;;;;;20.31;74.70117;932.2838;;;;
2020/09/23 10:03:06;;;;;;;0.8;0.7;;;;;;;20.32;73.42871;932.315;;;;
2020/09/23 10:05:31;;;;;;;2.8;1.3;;;;;;;20.32;73.79199;932.289;;;;
2020/09/23 10:08:05;;;;;;;4;1.3;;;;;;;20.25;72.97461;932.2617;;;;
2020/09/23 10:10:36;;;;;;;3.1;1.1;;;;;;;20.48;74.24023;932.2374;;;;
2020/09/23 10:13:01;;;;;;;1.2;1;;;;;;;20.45;72.10645;932.2744;;;;
2020/09/23 10:15:27;;;;;;;2.1;1.1;;;;;;;20.36;71.91797;932.2285;;;;
2020/09/23 10:17:53;;;;;;;6.3;1.3;;;;;;;20.46;71.92383;932.1855;;;;
2020/09/23 10:20:18;;;;;;;6.7;1.4;;;;;;;20.18;72.21582;932.1905;;;;
2020/09/23 10:22:44;;;;;;;1.6;1.1;;;;;;;19.93;72.52637;932.2356;;;;
2020/09/23 10:25:19;;;;;;;2.6;1.5;;;;;;;19.67;74.55957;932.2123;;;;
2020/09/23 10:27:47;;;;;;;4.7;2;;;;;;;19.54;74.94336;932.2684;;;;
2020/09/23 10:30:14;;;;;;;2.2;1.1;;;;;;;19.45;75.30078;932.2639;;;;
2020/09/23 10:32:39;;;;;;;0.8;0.8;;;;;;;19.59;77.3418;932.1511;;;;
2020/09/23 10:35:18;;;;;;;2.6;1.3;;;;;;;19.63;77.03418;932.1331;;;;
2020/09/23 10:37:46;;;;;;;1.7;1.1;;;;;;;19.48;75.36523;932.111;;;;
2020/09/23 10:40:15;;;;;;;2.5;0.9;;;;;;;19.5;76.5918;932.0878;;;;
2020/09/23 10:42:42;;;;;;;1.7;1.5;;;;;;;19.54;78.38184;932.1174;;;;
2020/09/23 10:45:07;;;;;;;1.1;0.9;;;;;;;19.44;76.30273;932.1357;;;;
2020/09/23 10:47:34;;;;;;;2.2;1.4;;;;;;;19.49;77.34766;932.1058;;;;
2020/09/23 10:49:59;;;;;;;1.2;0.8;;;;;;;19.68;77.01953;932.0942;;;;
2020/09/23 10:52:25;;;;;;;1.6;1.1;;;;;;;19.87;76.04004;932.1028;;;;
2020/09/23 10:54:50;;;;;;;1.8;1.1;;;;;;;20.07;75.95605;932.1024;;;;
2020/09/23 10:57:16;;;;;;;1.7;1;;;;;;;20.3;73.29883;932.0826;;;;
2020/09/23 10:59:41;;;;;;;1.9;1.3;;;;;;;20.37;73.95117;932.0317;;;;
2020/09/23 11:02:06;;;;;;;1.5;1.1;;;;;;;20.47;72.41504;931.992;;;;
2020/09/23 11:04:38;;;;;;;1.7;1;;;;;;;20.5;71.625;932.0012;;;;
2020/09/23 11:07:00;;;;;;;1.4;1;;;;;;;20.63;72.10254;932.0142;;;;
2020/09/23 11:09:25;;;;;;;1.7;0.8;;;;;;;20.85;71.47168;932.0325;;;;
2020/09/23 11:11:51;;;;;;;1.3;0.8;;;;;;;21.16;68.80762;931.9799;;;;
2020/09/23 11:14:17;;;;;;;1.4;0.9;;;;;;;21.32;69.33398;931.9725;;;;
2020/09/23 11:16:42;;;;;;;1.5;0.9;;;;;;;21.51;69.6709;931.9788;;;;
2020/09/23 11:19:07;;;;;;;1.4;1;;;;;;;21.21;70.79297;931.9366;;;;
2020/09/23 11:21:34;;;;;;;0.9;0.7;;;;;;;21.48;69.71387;931.9152;;;;
2020/09/23 11:23:59;;;;;;;2.4;1.2;;;;;;;21.74;68.60547;931.8614;;;;
2020/09/23 11:26:24;;;;;;;1.3;0.9;;;;;;;21.69;67.96484;931.8727;;;;
2020/09/23 11:28:54;;;;;;;1.3;0.7;;;;;;;21.79;67.02051;931.8884;;;;
2020/09/23 11:31:19;;;;;;;1.5;0.9;;;;;;;21.7;68.79883;931.8647;;;;
2020/09/23 11:33:44;;;;;;;1.4;0.7;;;;;;;21.82;67.1416;931.8077;;;;
2020/09/23 11:36:09;;;;;;;2.1;1.2;;;;;;;21.76;66.99219;931.7717;;;;
2020/09/23 11:38:37;;;;;;;1.3;0.9;;;;;;;21.22;71.04102;931.8138;;;;
2020/09/23 11:41:02;;;;;;;1.4;1.1;;;;;;;20.94;69.93262;931.7594;;;;
2020/09/23 11:43:27;;;;;;;1.6;0.8;;;;;;;20.97;71.39844;931.755;;;;
2020/09/23 11:45:52;;;;;;;1.1;1;;;;;;;20.89;72.22754;931.7137;;;;
2020/09/23 11:48:17;;;;;;;2.7;1.1;;;;;;;21.05;71.23438;931.7271;;;;
2020/09/23 11:50:43;;;;;;;1;0.8;;;;;;;20.53;73.04395;931.7274;;;;
2020/09/23 11:53:09;;;;;;;1.2;0.8;;;;;;;20.9;70.81348;931.7326;;;;
2020/09/23 11:55:33;;;;;;;0.8;0.7;;;;;;;21.22;69.70801;931.7221;;;;
2020/09/23 11:58:00;;;;;;;1.3;0.9;;;;;;;21.36;66.05371;931.7162;;;;
2020/09/23 12:00:27;;;;;;;0.7;0.6;;;;;;;21.47;66.50293;931.7254;;;;
2020/09/23 12:02:52;;;;;;;1.1;0.9;;;;;;;21.55;65.49707;931.6508;;;;
2020/09/23 12:05:17;;;;;;;2.6;1;;;;;;;21.68;66.33496;931.5847;;;;
2020/09/23 12:07:42;;;;;;;1.2;1.1;;;;;;;21.83;65.58594;931.6202;;;;
2020/09/23 12:10:07;;;;;;;0.9;0.7;;;;;;;21.82;65.60742;931.5815;;;;
2020/09/23 12:12:34;;;;;;;2.2;1.1;;;;;;;21.82;64.00195;931.5662;;;;
2020/09/23 12:14:59;;;;;;;3.4;1;;;;;;;21.92;64.62598;931.6105;;;;
2020/09/23 12:17:25;;;;;;;0.7;0.6;;;;;;;22.07;65.22266;931.6028;;;;
2020/09/23 12:19:51;;;;;;;1;0.8;;;;;;;22.18;64.38086;931.6296;;;;
2020/09/23 12:22:16;;;;;;;1.4;0.8;;;;;;;22.07;66.18359;931.5736;;;;
2020/09/23 12:24:41;;;;;;;1.3;0.9;;;;;;;22.14;62.93555;931.6116;;;;
2020/09/23 12:27:09;;;;;;;1.5;0.8;;;;;;;21.97;62.17285;931.6042;;;;
2020/09/23 12:29:34;;;;;;;1.5;0.8;;;;;;;21.12;64.33301;931.5314;;;;
2020/09/23 12:31:59;;;;;;;0.9;0.6;;;;;;;21.32;65.83789;931.538;;;;
2020/09/23 12:34:26;;;;;;;2.9;0.9;;;;;;;21.28;69.02539;931.4936;;;;
2020/09/23 12:36:51;;;;;;;2.6;0.8;;;;;;;20.91;69.9502;931.509;;;;
2020/09/23 12:39:17;;;;;;;1.8;0.8;;;;;;;20.63;71.36816;931.4858;;;;
2020/09/23 12:41:42;;;;;;;2.5;0.7;;;;;;;20.67;71.87598;931.4414;;;;
2020/09/23 12:44:08;;;;;;;1;0.7;;;;;;;20.4;74.18945;931.4459;;;;
2020/09/23 12:46:33;;;;;;;1.5;0.9;;;;;;;20.47;71.16504;931.4476;;;;
2020/09/23 12:48:59;;;;;;;2.7;0.9;;;;;;;20.88;69.44141;931.427;;;;
2020/09/23 12:51:24;;;;;;;0.8;0.6;;;;;;;21.08;68.24609;931.4099;;;;
2020/09/23 12:53:49;;;;;;;2.3;1.3;;;;;;;21.13;70.40527;931.3575;;;;
2020/09/23 12:56:14;;;;;;;1.1;0.6;;;;;;;21.36;70.4082;931.4003;;;;
2020/09/23 12:58:39;;;;;;;1.8;0.8;;;;;;;21.69;66.31348;931.3781;;;;
2020/09/23 13:01:06;;;;;;;1.4;1.1;;;;;;;21.56;65.42773;931.3318;;;;
2020/09/23 13:03:30;;;;;;;1.3;0.5;;;;;;;21.93;65.69238;931.3906;;;;
2020/09/23 13:05:55;;;;;;;1.9;1.2;;;;;;;22.34;64.26563;931.3473;;;;
2020/09/23 13:08:20;;;;;;;1.3;0.9;;;;;;;22.76;62.48242;931.3391;;;;
2020/09/23 13:10:45;;;;;;;1.2;0.9;;;;;;;23.36;62.02539;931.2748;;;;
2020/09/23 13:13:10;;;;;;;0.5;0.3;;;;;;;24.19;57.77148;931.2203;;;;
2020/09/23 13:15:37;;;;;;;0.5;0.5;;;;;;;25.98;53.59277;931.2561;;;;
2020/09/23 13:18:02;;;;;;;1.2;0.5;;;;;;;28.56;46.18164;931.1559;;;;
2020/09/23 13:20:27;;;;;;;1;0.6;;;;;;;30.07;40.94336;931.1387;;;;
2020/09/23 13:22:53;;;;;;;0.8;0.5;;;;;;;31.06;37.95996;931.1262;;;;
2020/09/23 13:25:18;;;;;;;0.3;0.3;;;;;;;30.62;41.25586;931.0848;;;;
2020/09/23 13:27:43;;;;;;;0.5;0.2;;;;;;;30.84;39.80469;931.0909;;;;
2020/09/23 13:30:18;;;;;;;1.2;0.6;;;;;;;31.96;37.20801;931.0412;;;;
2020/09/23 13:32:43;;;;;;;0.9;0.6;;;;;;;31.82;36.34668;931.0776;;;;
2020/09/23 13:35:08;;;;;;;1;0.5;;;;;;;31.76;37.59863;931.0401;;;;
2020/09/23 13:37:36;;;;;;;0.6;0.5;;;;;;;31.11;38.78906;931.0276;;;;
2020/09/23 13:40:01;;;;;;;0.4;0.3;;;;;;;30.11;39.77734;930.9428;;;;
2020/09/23 13:42:28;;;;;;;0.5;0.2;;;;;;;30.38;38.35645;930.9889;;;;
2020/09/23 13:44:53;;;;;;;0.3;0.3;;;;;;;31.79;35.50488;930.9722;;;;
2020/09/23 13:47:19;;;;;;;0.1;0.1;;;;;;;32.95;32.89355;930.8937;;;;
2020/09/23 13:49:44;;;;;;;0.1;0.1;;;;;;;34.09;32.44629;930.8986;;;;
2020/09/23 13:52:10;;;;;;;0.6;0.2;;;;;;;34.26;32.41016;930.8652;;;;
2020/09/23 13:54:35;;;;;;;1;0.4;;;;;;;34.01;31.65918;930.8569;;;;
2020/09/23 13:57:01;;;;;;;0.1;0.1;;;;;;;34.85;30.25781;930.8134;;;;
2020/09/23 13:59:26;;;;;;;0;0;;;;;;;33.56;31.09766;930.7693;;;;
2020/09/23 14:01:52;;;;;;;0.1;0.1;;;;;;;34.29;31.26855;930.8287;;;;
2020/09/23 14:04:16;;;;;;;0.1;0.1;;;;;;;34.99;30.30273;930.8369;;;;
2020/09/23 14:06:41;;;;;;;0.2;0.2;;;;;;;34.28;29.99023;930.7664;;;;
2020/09/23 14:09:07;;;;;;;0.6;0.1;;;;;;;32.65;33.24414;930.7481;;;;
2020/09/23 14:11:33;;;;;;;0.9;0.4;;;;;;;30.73;36.96387;930.7601;;;;
2020/09/23 14:13:58;;;;;;;1.1;0.2;;;;;;;29.86;38.74121;930.7328;;;;
2020/09/23 14:16:26;;;;;;;0.1;0.1;;;;;;;28.42;40.87695;930.7162;;;;
2020/09/23 14:18:51;;;;;;;0.2;0.2;;;;;;;27.27;44.59082;930.7346;;;;
2020/09/23 14:21:16;;;;;;;0.3;0.2;;;;;;;26.86;45.29688;930.7438;;;;
2020/09/23 14:23:43;;;;;;;0.6;0.2;;;;;;;25.92;48.63086;930.7997;;;;
2020/09/23 14:26:08;;;;;;;0.3;0.2;;;;;;;25.41;48.08008;930.7503;;;;
2020/09/23 14:28:34;;;;;;;0.1;0.1;;;;;;;24.85;50.7207;930.7053;;;;
2020/09/23 14:31:01;;;;;;;0.1;0.1;;;;;;;24.7;50.72754;930.7328;;;;
2020/09/23 14:33:26;;;;;;;0.2;0.1;;;;;;;24.46;51.44336;930.7828;;;;
2020/09/23 14:35:55;;;;;;;0.3;0.2;;;;;;;24.32;52.15723;930.7954;;;;
2020/09/23 14:38:26;;;;;;;2;0.2;;;;;;;24.05;54.17383;930.7471;;;;
2020/09/23 14:41:04;;;;;;;0.4;0.1;;;;;;;23.79;56.07227;930.8393;;;;
2020/09/23 14:43:30;;;;;;;0.4;0.2;;;;;;;23.76;56.45605;930.7687;;;;
2020/09/23 14:45:54;;;;;;;0.2;0.2;;;;;;;23.54;57.12207;930.74;;;;
2020/09/23 14:48:24;;;;;;;0.2;0.2;;;;;;;23.41;58.19922;930.8114;;;;
2020/09/23 14:50:49;;;;;;;0.5;0.3;;;;;;;23.36;59.09766;930.7191;;;;
2020/09/23 14:53:17;;;;;;;0.2;0.2;;;;;;;23.33;59.83398;930.7612;;;;
2020/09/23 14:55:42;;;;;;;0.4;0.3;;;;;;;23.34;60.03613;930.7256;;;;
2020/09/23 14:58:09;;;;;;;0.2;0.2;;;;;;;23.24;59.68262;930.7219;;;;
2020/09/23 15:00:35;;;;;;;1.1;0.3;;;;;;;23.13;60.47754;930.7572;;;;
2020/09/23 15:03:00;;;;;;;0.4;0.3;;;;;;;22.72;62.39453;930.8336;;;;
2020/09/23 15:05:27;;;;;;;0.3;0.2;;;;;;;22.83;61.85742;930.8097;;;;
2020/09/23 15:07:52;;;;;;;0.2;0.2;;;;;;;22.86;61.55664;930.7383;;;;
2020/09/23 15:10:20;;;;;;;3.4;0.2;;;;;;;22.8;62.59277;930.7424;;;;
2020/09/23 15:12:46;;;;;;;1.1;0.3;;;;;;;22.68;62.88281;930.7658;;;;
2020/09/23 15:15:20;;;;;;;0.2;0.2;;;;;;;22.51;63.38574;930.736;;;;
2020/09/23 15:17:50;;;;;;;0.2;0.1;;;;;;;22.35;62.50684;930.7764;;;;
2020/09/23 15:20:18;;;;;;;0;0;;;;;;;22.15;60.54492;930.7791;;;;
2020/09/23 15:22:47;;;;;;;0.4;0.2;;;;;;;22.04;60.8916;930.8102;;;;
2020/09/23 15:25:13;;;;;;;0.2;0.2;;;;;;;22.02;60.83105;930.8481;;;;
2020/09/23 15:27:41;;;;;;;0.1;0.1;;;;;;;21.84;60.6543;930.8223;;;;
2020/09/23 15:30:06;;;;;;;0;0;;;;;;;21.82;61.00293;930.8447;;;;
2020/09/23 15:32:32;;;;;;;0.2;0.1;;;;;;;21.74;62.26855;930.8767;;;;